createdAt,value
2023-04-30T00:01:32.780Z,6.53
2023-04-30T00:04:03.309Z,6.93
2023-04-30T00:06:34.138Z,7.53
2023-04-30T00:09:04.541Z,6.45
2023-04-30T00:11:34.860Z,6.10
2023-04-30T00:14:05.202Z,6.70
2023-04-30T00:16:38.182Z,6.18
2023-04-30T00:19:08.641Z,7.18
2023-04-30T00:21:39.172Z,6.82
2023-04-30T00:24:09.708Z,7.38
2023-04-30T00:26:40.086Z,6.88
2023-04-30T00:29:10.518Z,7.13
2023-04-30T00:31:43.450Z,7.85
2023-04-30T00:34:13.888Z,7.45
2023-04-30T00:36:44.318Z,8.95
2023-04-30T00:39:14.655Z,6.95
2023-04-30T00:41:45.023Z,7.22
2023-04-30T00:44:15.353Z,8.60
2023-04-30T00:46:48.272Z,7.22
2023-04-30T00:49:18.781Z,7.82
2023-04-30T00:51:49.131Z,8.02
2023-04-30T00:54:19.574Z,7.20
2023-04-30T00:56:49.924Z,8.23
2023-04-30T00:59:20.443Z,8.18
2023-04-30T01:01:53.582Z,7.65
2023-04-30T01:04:24.429Z,8.52
2023-04-30T01:06:55.101Z,8.52
2023-04-30T01:09:25.473Z,8.38
2023-04-30T01:12:03.716Z,8.15
2023-04-30T01:14:41.411Z,7.70
2023-04-30T01:17:21.244Z,8.32
2023-04-30T01:19:52.103Z,9.45
2023-04-30T01:22:38.406Z,9.32
2023-04-30T01:25:33.836Z,8.68
2023-04-30T01:28:11.921Z,9.13
2023-04-30T01:30:44.970Z,8.30
2023-04-30T01:33:15.799Z,9.85
2023-04-30T01:36:12.388Z,8.27
2023-04-30T01:38:58.344Z,9.02
2023-04-30T01:41:35.978Z,8.35
2023-04-30T01:44:24.937Z,8.70
2023-04-30T01:47:01.392Z,8.50
2023-04-30T01:49:34.453Z,9.63
2023-04-30T01:52:14.823Z,9.75
2023-04-30T01:54:56.080Z,9.00
2023-04-30T01:57:32.398Z,8.10
2023-04-30T02:00:05.622Z,8.52
2023-04-30T02:02:44.080Z,8.05
2023-04-30T02:05:14.444Z,8.10
2023-04-30T02:07:46.696Z,8.43
2023-04-30T02:10:17.244Z,8.88
2023-04-30T02:12:47.613Z,9.05
2023-04-30T02:15:21.001Z,9.00
2023-04-30T02:17:51.466Z,8.52
2023-04-30T02:20:21.893Z,8.27
2023-04-30T02:22:52.334Z,9.38
2023-04-30T02:25:22.612Z,8.52
2023-04-30T02:27:53.344Z,10.02
2023-04-30T02:30:26.266Z,9.77
2023-04-30T02:32:56.631Z,9.48
2023-04-30T02:35:26.994Z,9.57
2023-04-30T02:37:57.515Z,10.20
2023-04-30T02:40:27.858Z,9.43
2023-04-30T02:42:58.182Z,9.15
2023-04-30T02:45:31.160Z,9.68
2023-04-30T02:48:01.613Z,8.93
2023-04-30T02:50:32.488Z,9.55
2023-04-30T02:53:02.818Z,10.00
2023-04-30T02:55:33.274Z,9.27
2023-04-30T02:58:03.595Z,8.85
2023-04-30T03:00:36.497Z,9.55
2023-04-30T03:03:07.067Z,9.57
2023-04-30T03:05:37.464Z,9.75
2023-04-30T03:08:07.853Z,9.70
2023-04-30T03:10:38.268Z,9.32
2023-04-30T03:13:08.595Z,9.95
2023-04-30T03:15:41.491Z,10.27
2023-04-30T03:18:11.868Z,10.38
2023-04-30T03:20:42.597Z,10.73
2023-04-30T03:23:13.090Z,10.38
2023-04-30T03:25:43.435Z,10.60
2023-04-30T03:28:13.773Z,11.00
2023-04-30T03:30:46.405Z,10.93
2023-04-30T03:33:16.734Z,10.95
2023-04-30T03:35:47.039Z,11.15
2023-04-30T03:38:17.505Z,10.43
2023-04-30T03:40:47.797Z,10.23
2023-04-30T03:43:18.602Z,11.25
2023-04-30T03:45:51.335Z,10.45
2023-04-30T03:48:21.898Z,10.88
2023-04-30T03:50:52.221Z,10.25
2023-04-30T03:53:22.548Z,9.75
2023-04-30T03:55:53.127Z,11.07
2023-04-30T03:58:24.909Z,10.50
2023-04-30T04:00:57.566Z,10.10
2023-04-30T04:03:28.034Z,10.30
2023-04-30T04:05:58.377Z,10.25
2023-04-30T04:08:28.744Z,10.35
2023-04-30T04:10:59.088Z,9.13
2023-04-30T04:13:29.422Z,10.50
2023-04-30T04:16:02.210Z,10.18
2023-04-30T04:18:32.729Z,9.38
2023-04-30T04:21:03.235Z,9.95
2023-04-30T04:23:34.672Z,10.25
2023-04-30T04:26:05.028Z,10.57
2023-04-30T04:28:36.854Z,9.63
2023-04-30T04:31:09.712Z,10.98
2023-04-30T04:33:40.044Z,11.10
2023-04-30T04:36:10.570Z,9.52
2023-04-30T04:38:41.257Z,9.35
2023-04-30T04:41:11.760Z,9.80
2023-04-30T04:43:42.653Z,10.45
2023-04-30T04:46:16.762Z,9.90
2023-04-30T04:48:47.170Z,9.80
2023-04-30T04:51:17.696Z,9.73
2023-04-30T04:53:48.002Z,9.45
2023-04-30T04:56:18.429Z,10.02
2023-04-30T04:58:49.112Z,8.63
2023-04-30T05:01:22.082Z,9.70
2023-04-30T05:03:53.936Z,8.85
2023-04-30T05:06:24.506Z,9.98
2023-04-30T05:08:55.298Z,9.77
2023-04-30T05:11:25.933Z,8.52
2023-04-30T05:13:58.350Z,9.70
2023-04-30T05:16:31.349Z,8.43
2023-04-30T05:19:01.735Z,8.98
2023-04-30T05:21:32.284Z,9.60
2023-04-30T05:24:02.636Z,9.52
2023-04-30T05:26:32.921Z,8.32
2023-04-30T05:29:03.287Z,8.88
2023-04-30T05:31:37.059Z,9.70
2023-04-30T05:34:07.474Z,8.80
2023-04-30T05:36:37.762Z,8.43
2023-04-30T05:39:08.414Z,9.48
2023-04-30T05:41:38.699Z,8.88
2023-04-30T05:44:09.057Z,8.45
2023-04-30T05:46:41.705Z,8.63
2023-04-30T05:49:12.436Z,9.25
2023-04-30T05:51:42.885Z,8.23
2023-04-30T05:54:13.155Z,9.25
2023-04-30T05:56:43.487Z,8.27
2023-04-30T05:59:14.054Z,8.80
2023-04-30T06:01:46.930Z,8.52
2023-04-30T06:04:17.751Z,8.63
2023-04-30T06:06:48.134Z,9.30
2023-04-30T06:09:18.520Z,9.52
2023-04-30T06:11:50.595Z,8.90
2023-04-30T06:14:22.802Z,8.93
2023-04-30T06:16:55.461Z,8.38
2023-04-30T06:19:25.829Z,8.45
2023-04-30T06:21:56.159Z,8.20
2023-04-30T06:24:27.714Z,8.20
2023-04-30T06:26:58.171Z,8.00
2023-04-30T06:29:28.496Z,8.05
2023-04-30T06:32:01.137Z,7.93
2023-04-30T06:34:31.497Z,7.10
2023-04-30T06:37:01.783Z,7.82
2023-04-30T06:39:32.102Z,7.75
2023-04-30T06:42:02.615Z,7.90
2023-04-30T06:44:33.274Z,7.63
2023-04-30T06:47:06.054Z,6.50
2023-04-30T06:49:36.377Z,6.43
2023-04-30T06:52:06.685Z,7.32
2023-04-30T06:54:36.997Z,6.93
2023-04-30T06:57:07.418Z,6.47
2023-04-30T06:59:37.872Z,6.22
2023-04-30T07:02:10.875Z,6.13
2023-04-30T07:04:40.991Z,5.50
2023-04-30T07:07:11.025Z,5.97
2023-04-30T07:09:41.551Z,6.13
2023-04-30T07:12:12.211Z,5.78
2023-04-30T07:14:42.274Z,5.78
2023-04-30T07:17:14.916Z,5.60
2023-04-30T07:19:45.107Z,5.10
2023-04-30T07:22:15.426Z,5.38
2023-04-30T07:24:45.724Z,4.93
2023-04-30T07:27:16.230Z,4.63
2023-04-30T07:29:46.559Z,5.38
2023-04-30T07:32:19.716Z,5.22
2023-04-30T07:34:50.019Z,5.73
2023-04-30T07:37:20.308Z,5.13
2023-04-30T07:39:50.396Z,5.03
2023-04-30T07:42:20.402Z,4.35
2023-04-30T07:44:51.057Z,4.90
2023-04-30T07:47:23.717Z,4.40
2023-04-30T07:49:53.965Z,4.95
2023-04-30T07:52:24.163Z,4.47
2023-04-30T07:54:54.204Z,4.90
2023-04-30T07:57:26.691Z,3.67
2023-04-30T07:59:57.779Z,4.35
2023-04-30T08:02:30.983Z,3.88
2023-04-30T08:05:01.499Z,3.30
2023-04-30T08:07:31.855Z,3.72
2023-04-30T08:10:02.070Z,3.55
2023-04-30T08:12:32.368Z,2.78
2023-04-30T08:15:06.156Z,3.50
2023-04-30T08:17:39.301Z,3.67
2023-04-30T08:20:11.433Z,3.13
2023-04-30T08:22:41.970Z,2.75
2023-04-30T08:25:14.055Z,2.75
2023-04-30T08:27:44.502Z,2.47
2023-04-30T08:30:15.134Z,2.90
2023-04-30T08:32:48.118Z,2.67
2023-04-30T08:35:19.694Z,2.40
2023-04-30T08:37:50.662Z,2.85
2023-04-30T08:40:21.049Z,2.60
2023-04-30T08:43:02.550Z,2.30
2023-04-30T08:45:33.142Z,1.85
2023-04-30T08:48:08.229Z,1.92
2023-04-30T08:50:39.079Z,2.08
2023-04-30T08:53:11.029Z,1.90
2023-04-30T08:55:43.361Z,1.52
2023-04-30T08:58:13.586Z,2.33
2023-04-30T09:00:44.249Z,2.10
2023-04-30T09:03:16.989Z,1.98
2023-04-30T09:05:47.108Z,1.75
2023-04-30T09:08:21.379Z,1.52
2023-04-30T09:10:51.505Z,1.63
2023-04-30T09:13:21.530Z,1.65
2023-04-30T09:15:55.251Z,1.70
2023-04-30T09:18:30.057Z,1.63
2023-04-30T09:21:02.218Z,1.73
2023-04-30T09:23:32.915Z,2.13
2023-04-30T09:26:03.621Z,1.42
2023-04-30T09:28:34.039Z,1.50
2023-04-30T09:31:04.394Z,1.35
2023-04-30T09:33:49.132Z,1.85
2023-04-30T09:36:19.651Z,1.35
2023-04-30T09:38:50.137Z,1.50
2023-04-30T09:41:28.687Z,1.05
2023-04-30T09:43:59.896Z,1.75
2023-04-30T09:46:34.859Z,1.13
2023-04-30T09:49:09.203Z,1.23
2023-04-30T09:51:56.126Z,1.30
2023-04-30T09:54:28.934Z,1.50
2023-04-30T09:56:59.950Z,1.40
2023-04-30T09:59:35.479Z,1.23
2023-04-30T10:02:08.033Z,1.30
2023-04-30T10:04:42.554Z,1.23
2023-04-30T10:07:16.716Z,1.52
2023-04-30T10:09:53.148Z,1.55
2023-04-30T10:12:27.404Z,1.73
2023-04-30T10:17:33.042Z,1.15
2023-04-30T10:20:09.797Z,1.15
2023-04-30T10:22:41.882Z,0.95
2023-04-30T10:25:13.667Z,1.20
2023-04-30T10:27:43.727Z,0.90
2023-04-30T10:30:14.873Z,0.93
2023-04-30T10:33:02.716Z,0.80
2023-04-30T10:35:43.659Z,0.77
2023-04-30T10:38:21.917Z,0.98
2023-04-30T10:40:52.156Z,0.77
2023-04-30T10:43:22.751Z,1.33
2023-04-30T10:45:53.354Z,0.88
2023-04-30T10:48:27.585Z,0.90
2023-04-30T10:51:02.353Z,1.02
2023-04-30T10:53:34.680Z,0.60
2023-04-30T10:56:09.533Z,0.85
2023-04-30T10:58:41.359Z,0.50
2023-04-30T11:01:15.009Z,0.65
2023-04-30T11:03:47.015Z,0.70
2023-04-30T11:06:26.729Z,0.45
2023-04-30T11:09:06.340Z,0.30
2023-04-30T11:11:37.114Z,0.50
2023-04-30T11:14:07.473Z,0.70
2023-04-30T11:16:38.298Z,0.80
2023-04-30T11:19:14.760Z,0.93
2023-04-30T11:22:07.766Z,1.00
2023-04-30T11:24:53.137Z,0.90
2023-04-30T11:27:24.740Z,0.63
2023-04-30T11:29:56.090Z,1.00
2023-04-30T11:32:28.576Z,0.60
2023-04-30T11:34:58.809Z,0.70
2023-04-30T11:37:34.156Z,0.60
2023-04-30T11:40:06.018Z,0.82
2023-04-30T11:42:37.426Z,0.60
2023-04-30T11:45:09.705Z,1.17
2023-04-30T11:47:47.985Z,0.80
2023-04-30T11:50:20.042Z,0.80
2023-04-30T11:52:56.526Z,0.80
2023-04-30T11:55:28.003Z,0.70
2023-04-30T11:58:00.219Z,0.45
2023-04-30T12:00:31.690Z,0.52
2023-04-30T12:03:04.488Z,0.30
2023-04-30T12:05:34.739Z,0.50
2023-04-30T12:08:09.435Z,0.28
2023-04-30T12:10:39.716Z,0.40
2023-04-30T12:13:10.080Z,0.80
2023-04-30T12:15:40.453Z,0.30
2023-04-30T12:18:16.049Z,0.20
2023-04-30T12:20:46.498Z,0.50
2023-04-30T12:23:19.257Z,0.45
2023-04-30T12:25:49.620Z,0.25
2023-04-30T12:28:19.668Z,0.30
2023-04-30T12:30:50.610Z,0.43
2023-04-30T12:33:21.693Z,0.30
2023-04-30T12:35:51.759Z,0.20
2023-04-30T12:38:24.426Z,0.30
2023-04-30T12:40:54.957Z,0.20
2023-04-30T12:43:25.050Z,0.10
2023-04-30T12:45:58.088Z,0.35
2023-04-30T12:48:28.795Z,0.25
2023-04-30T12:51:01.995Z,0.38
2023-04-30T12:53:35.077Z,0.25
2023-04-30T12:56:13.132Z,0.30
2023-04-30T12:58:45.711Z,0.13
2023-04-30T13:01:16.433Z,0.25
2023-04-30T13:03:46.901Z,0.17
2023-04-30T13:06:17.456Z,0.30
2023-04-30T13:08:58.412Z,0.30
2023-04-30T13:11:29.437Z,0.30
2023-04-30T13:13:59.829Z,0.47
2023-04-30T13:16:31.177Z,0.20
2023-04-30T13:19:01.566Z,0.20
2023-04-30T13:21:33.092Z,0.10
2023-04-30T13:24:05.770Z,0.30
2023-04-30T13:26:36.100Z,0.30
2023-04-30T13:29:06.735Z,0.40
2023-04-30T13:31:37.263Z,0.30
2023-04-30T13:34:07.616Z,0.20
2023-04-30T13:36:37.971Z,0.10
2023-04-30T13:39:10.678Z,0.20
2023-04-30T13:41:41.040Z,0.30
2023-04-30T13:44:11.603Z,0.20
2023-04-30T13:46:41.749Z,0.47
2023-04-30T13:49:12.092Z,0.15
2023-04-30T13:51:42.243Z,0.20
2023-04-30T13:54:15.110Z,0.10
2023-04-30T13:56:45.413Z,0.37
2023-04-30T13:59:15.763Z,0.20
2023-04-30T14:01:46.238Z,0.28
2023-04-30T14:04:16.649Z,0.20
2023-04-30T14:06:47.721Z,0.17
2023-04-30T14:09:20.871Z,0.20
2023-04-30T14:11:51.438Z,0.28
2023-04-30T14:14:21.746Z,0.10
2023-04-30T14:16:52.688Z,0.10
2023-04-30T14:19:23.192Z,0.10
2023-04-30T14:21:53.525Z,0.10
2023-04-30T14:24:26.233Z,0.00
2023-04-30T14:26:56.534Z,0.20
2023-04-30T14:29:26.919Z,0.10
2023-04-30T14:31:57.273Z,0.10
2023-04-30T14:34:28.148Z,0.10
2023-04-30T14:36:59.622Z,0.20
2023-04-30T14:39:32.393Z,0.20
2023-04-30T14:42:03.481Z,0.10
2023-04-30T14:44:33.806Z,0.10
2023-04-30T14:47:04.279Z,0.00
2023-04-30T14:49:34.670Z,0.03
2023-04-30T14:52:05.004Z,0.00
2023-04-30T14:54:38.353Z,0.10
2023-04-30T14:57:09.228Z,0.35
2023-04-30T14:59:40.297Z,0.10
2023-04-30T15:02:11.401Z,0.38
2023-04-30T15:04:45.634Z,0.20
2023-04-30T15:07:16.029Z,0.10
2023-04-30T15:09:49.113Z,0.05
2023-04-30T15:12:19.527Z,0.10
2023-04-30T15:14:50.649Z,0.10
2023-04-30T15:17:21.052Z,0.05
2023-04-30T15:19:51.461Z,0.10
2023-04-30T15:22:21.744Z,0.00
2023-04-30T15:24:54.330Z,0.10
2023-04-30T15:27:24.364Z,0.10
2023-04-30T15:29:54.601Z,0.00
2023-04-30T15:32:24.731Z,0.20
2023-04-30T15:34:55.394Z,0.10
2023-04-30T15:37:25.700Z,0.30
2023-04-30T15:39:58.602Z,0.30
2023-04-30T15:42:28.903Z,0.37
2023-04-30T15:44:59.205Z,0.10
2023-04-30T15:47:29.259Z,0.40
2023-04-30T15:49:59.324Z,0.20
2023-04-30T15:52:29.696Z,0.20
2023-04-30T15:55:02.616Z,0.17
2023-04-30T15:57:32.892Z,0.10
2023-04-30T16:00:04.516Z,0.00
2023-04-30T16:02:41.942Z,0.10
2023-04-30T16:05:13.086Z,0.20
2023-04-30T16:07:44.840Z,0.40
2023-04-30T16:10:17.782Z,0.20
2023-04-30T16:12:48.631Z,0.10
2023-04-30T16:15:19.130Z,0.70
2023-04-30T16:17:49.341Z,0.40
2023-04-30T16:20:20.577Z,0.50
2023-04-30T16:22:52.837Z,0.20
2023-04-30T16:25:25.505Z,0.50
2023-04-30T16:27:56.990Z,0.20
2023-04-30T16:30:27.030Z,0.25
2023-04-30T16:32:57.066Z,0.10
2023-04-30T16:35:27.178Z,0.10
2023-04-30T16:37:57.799Z,0.10
2023-04-30T16:40:31.251Z,0.10
2023-04-30T16:43:01.761Z,0.20
2023-04-30T16:45:34.879Z,0.10
2023-04-30T16:48:05.387Z,0.40
2023-04-30T16:50:35.584Z,0.25
2023-04-30T16:53:06.441Z,0.20
2023-04-30T16:55:39.339Z,0.17
2023-04-30T16:58:09.363Z,0.22
2023-04-30T17:00:39.424Z,0.40
2023-04-30T17:03:10.500Z,0.17
2023-04-30T17:05:40.626Z,0.20
2023-04-30T17:08:12.987Z,0.40
2023-04-30T17:10:45.860Z,0.25
2023-04-30T17:13:16.215Z,0.20
2023-04-30T17:15:46.587Z,0.40
2023-04-30T17:18:16.944Z,0.17
2023-04-30T17:20:49.837Z,0.10
2023-04-30T17:23:20.300Z,0.20
2023-04-30T17:25:53.142Z,0.30
2023-04-30T17:28:23.120Z,0.28
2023-04-30T17:30:53.429Z,0.22
2023-04-30T17:33:25.452Z,0.10
2023-04-30T17:35:55.968Z,0.32
2023-04-30T17:38:25.950Z,0.40
2023-04-30T17:40:59.502Z,0.30
2023-04-30T17:43:29.810Z,0.10
2023-04-30T17:46:00.190Z,0.20
2023-04-30T17:48:31.226Z,0.20
2023-04-30T17:51:01.331Z,0.13
2023-04-30T17:53:31.424Z,0.68
2023-04-30T17:56:04.445Z,2.30
2023-04-30T17:58:34.495Z,1.33
2023-04-30T18:01:04.477Z,0.43
2023-04-30T18:03:36.573Z,0.45
2023-04-30T18:06:07.439Z,0.63
2023-04-30T18:08:37.586Z,0.45
2023-04-30T18:11:10.292Z,0.40
2023-04-30T18:13:40.502Z,0.52
2023-04-30T18:16:10.854Z,0.30
2023-04-30T18:18:41.198Z,0.35
2023-04-30T18:21:11.537Z,0.50
2023-04-30T18:23:41.637Z,0.60
2023-04-30T18:26:14.385Z,2.67
2023-04-30T18:28:44.590Z,6.97
2023-04-30T18:31:14.600Z,2.63
2023-04-30T18:33:44.719Z,0.70
2023-04-30T18:36:15.014Z,0.35
2023-04-30T18:38:45.764Z,0.60
2023-04-30T18:41:18.407Z,0.40
2023-04-30T18:43:49.137Z,0.40
2023-04-30T18:46:19.236Z,0.22
2023-04-30T18:48:49.277Z,0.35
2023-04-30T18:51:19.439Z,0.30
2023-04-30T18:53:50.764Z,0.55
2023-04-30T18:56:23.361Z,0.40
2023-04-30T18:58:53.471Z,0.40
2023-04-30T19:01:27.488Z,0.43
2023-04-30T19:06:28.407Z,0.32
2023-04-30T19:08:59.855Z,0.30
2023-04-30T19:11:35.653Z,0.32
2023-04-30T19:14:06.521Z,0.40
2023-04-30T19:16:36.899Z,0.70
2023-04-30T19:19:07.328Z,0.60
2023-04-30T19:21:37.550Z,0.50
2023-04-30T19:24:07.746Z,0.40
2023-04-30T19:26:43.173Z,0.60
2023-04-30T19:29:13.345Z,1.13
2023-04-30T19:31:43.466Z,0.75
2023-04-30T19:34:13.990Z,0.38
2023-04-30T19:36:44.306Z,0.75
2023-04-30T19:39:15.773Z,0.30
2023-04-30T19:41:48.401Z,0.30
2023-04-30T19:44:20.121Z,0.60
2023-04-30T19:46:50.243Z,0.50
2023-04-30T19:49:20.440Z,0.40
2023-04-30T19:51:50.452Z,1.05
2023-04-30T19:54:20.758Z,1.90
2023-04-30T19:56:54.763Z,2.70
2023-04-30T19:59:26.886Z,0.70
2023-04-30T20:01:57.234Z,0.80
2023-04-30T20:04:27.589Z,0.50
2023-04-30T20:06:58.558Z,0.98
2023-04-30T20:09:28.616Z,0.52
2023-04-30T20:12:03.747Z,0.43
2023-04-30T20:14:34.115Z,0.52
2023-04-30T20:17:04.417Z,0.60
2023-04-30T20:19:34.684Z,0.60
2023-04-30T20:22:05.010Z,0.50
2023-04-30T20:24:35.219Z,0.50
2023-04-30T20:27:07.843Z,0.82
2023-04-30T20:29:40.281Z,0.65
2023-04-30T20:32:10.430Z,1.45
2023-04-30T20:34:40.475Z,0.70
2023-04-30T20:37:10.549Z,0.75
2023-04-30T20:39:41.607Z,1.02
2023-04-30T20:42:14.193Z,0.98
2023-04-30T20:44:44.512Z,1.02
2023-04-30T20:47:14.579Z,0.90
2023-04-30T20:49:45.144Z,1.42
2023-04-30T20:52:15.447Z,1.48
2023-04-30T20:54:45.846Z,1.27
2023-04-30T20:57:18.493Z,1.10
2023-04-30T20:59:48.963Z,0.93
2023-04-30T21:02:19.067Z,1.00
2023-04-30T21:04:49.355Z,0.90
2023-04-30T21:07:19.370Z,1.20
2023-04-30T21:09:50.987Z,1.35
2023-04-30T21:12:23.609Z,1.40
2023-04-30T21:14:54.554Z,1.38
2023-04-30T21:17:24.939Z,1.30
2023-04-30T21:19:56.833Z,1.15
2023-04-30T21:22:27.850Z,1.30
2023-04-30T21:24:58.196Z,1.48
2023-04-30T21:27:30.866Z,1.42
2023-04-30T21:30:00.867Z,1.48
2023-04-30T21:32:31.668Z,1.67
2023-04-30T21:35:02.048Z,1.48
2023-04-30T21:37:32.367Z,1.42
2023-04-30T21:40:03.906Z,1.50
2023-04-30T21:42:36.816Z,1.90
2023-04-30T21:45:08.338Z,2.40
2023-04-30T21:47:38.582Z,1.45
2023-04-30T21:50:09.650Z,1.40
2023-04-30T21:52:39.939Z,1.70
2023-04-30T21:55:11.788Z,1.88
2023-04-30T21:57:46.680Z,1.95
2023-04-30T22:00:18.455Z,1.73
2023-04-30T22:02:51.824Z,2.22
2023-04-30T22:05:22.040Z,1.70
2023-04-30T22:07:52.142Z,1.77
2023-04-30T22:10:22.536Z,1.67
2023-04-30T22:12:55.780Z,1.42
2023-04-30T22:15:29.337Z,1.98
2023-04-30T22:18:05.273Z,1.90
2023-04-30T22:20:35.315Z,1.98
2023-04-30T22:23:05.592Z,2.22
2023-04-30T22:25:35.862Z,1.55
2023-04-30T22:28:10.237Z,2.00
2023-04-30T22:30:40.710Z,1.83
2023-04-30T22:33:11.042Z,1.92
2023-04-30T22:35:41.451Z,2.00
2023-04-30T22:38:12.256Z,1.58
2023-04-30T22:40:42.576Z,2.33
2023-04-30T22:43:16.440Z,2.03
2023-04-30T22:45:47.304Z,2.30
2023-04-30T22:48:17.876Z,2.15
2023-04-30T22:50:47.990Z,1.90
2023-04-30T22:53:18.284Z,1.85
2023-04-30T22:55:48.494Z,1.55
2023-04-30T22:58:21.465Z,1.73
2023-04-30T23:00:51.804Z,1.70
2023-04-30T23:03:21.825Z,1.20
2023-04-30T23:05:51.854Z,1.95
2023-04-30T23:08:21.910Z,1.65
2023-04-30T23:10:53.271Z,1.35
2023-04-30T23:13:25.993Z,1.90
2023-04-30T23:16:02.203Z,1.63
2023-04-30T23:18:32.497Z,1.80
2023-04-30T23:21:03.767Z,2.00
2023-04-30T23:23:34.056Z,1.30
2023-04-30T23:26:04.169Z,1.40
2023-04-30T23:28:38.066Z,1.67
2023-04-30T23:31:08.404Z,1.83
2023-04-30T23:33:38.388Z,2.72
2023-04-30T23:36:09.448Z,1.52
2023-04-30T23:38:39.786Z,1.63
2023-04-30T23:41:10.272Z,1.55
2023-04-30T23:43:42.854Z,1.80
2023-04-30T23:46:13.002Z,1.33
2023-04-30T23:48:43.040Z,1.35
2023-04-30T23:51:13.398Z,1.70
2023-04-30T23:53:43.775Z,1.40
2023-04-30T23:56:14.103Z,1.45
2023-04-30T23:58:47.178Z,1.55
